sensor_id;sensor_type;location;lat;lon;timestamp;pressure;altitude;pressure_sealevel;temperature;humidity
78835;BME280;68187;42.682;23.352;2023-04-06T00:00:06;94909.78;;;0.65;65.60
78835;BME280;68187;42.682;23.352;2023-04-06T00:02:34;94923.34;;;0.67;65.46
78835;BME280;68187;42.682;23.352;2023-04-06T00:05:01;94911.53;;;0.71;64.08
78835;BME280;68187;42.682;23.352;2023-04-06T00:07:27;94920.34;;;0.70;63.73
78835;BME280;68187;42.682;23.352;2023-04-06T00:09:55;94896.38;;;0.61;64.12
78835;BME280;68187;42.682;23.352;2023-04-06T00:12:21;94894.81;;;0.60;63.58
78835;BME280;68187;42.682;23.352;2023-04-06T00:14:50;94894.59;;;0.62;64.70
78835;BME280;68187;42.682;23.352;2023-04-06T00:17:17;94886.00;;;0.61;64.14
78835;BME280;68187;42.682;23.352;2023-04-06T00:19:44;94894.72;;;0.73;63.89
78835;BME280;68187;42.682;23.352;2023-04-06T00:22:11;94890.13;;;0.76;63.99
78835;BME280;68187;42.682;23.352;2023-04-06T00:24:38;94884.38;;;0.67;63.90
78835;BME280;68187;42.682;23.352;2023-04-06T00:27:04;94894.72;;;0.73;64.17
78835;BME280;68187;42.682;23.352;2023-04-06T00:29:31;94887.34;;;0.70;63.98
78835;BME280;68187;42.682;23.352;2023-04-06T00:31:59;94883.53;;;0.73;64.26
78835;BME280;68187;42.682;23.352;2023-04-06T00:34:26;94859.25;;;0.61;64.52
78835;BME280;68187;42.682;23.352;2023-04-06T00:36:53;94886.25;;;0.85;63.73
78835;BME280;68187;42.682;23.352;2023-04-06T00:39:20;94889.06;;;0.83;63.01
78835;BME280;68187;42.682;23.352;2023-04-06T00:41:51;94868.31;;;0.77;63.11
78835;BME280;68187;42.682;23.352;2023-04-06T00:44:19;94883.06;;;0.83;63.95
78835;BME280;68187;42.682;23.352;2023-04-06T00:46:46;94880.47;;;0.83;63.12
78835;BME280;68187;42.682;23.352;2023-04-06T00:49:14;94864.13;;;0.76;64.24
78835;BME280;68187;42.682;23.352;2023-04-06T00:51:41;94881.44;;;0.88;63.28
78835;BME280;68187;42.682;23.352;2023-04-06T00:54:07;94855.88;;;0.85;63.44
78835;BME280;68187;42.682;23.352;2023-04-06T00:56:34;94843.91;;;0.78;63.40
78835;BME280;68187;42.682;23.352;2023-04-06T00:59:01;94875.63;;;0.93;63.96
78835;BME280;68187;42.682;23.352;2023-04-06T01:01:28;94861.41;;;0.89;63.70
78835;BME280;68187;42.682;23.352;2023-04-06T01:03:58;94853.44;;;0.90;62.73
78835;BME280;68187;42.682;23.352;2023-04-06T01:06:26;94861.75;;;0.99;63.15
78835;BME280;68187;42.682;23.352;2023-04-06T01:08:52;94855.81;;;0.92;62.46
78835;BME280;68187;42.682;23.352;2023-04-06T01:11:19;94855.50;;;0.82;63.41
78835;BME280;68187;42.682;23.352;2023-04-06T01:13:46;94864.19;;;0.94;63.27
78835;BME280;68187;42.682;23.352;2023-04-06T01:16:13;94821.38;;;0.71;62.68
78835;BME280;68187;42.682;23.352;2023-04-06T01:18:40;94853.78;;;0.94;63.62
78835;BME280;68187;42.682;23.352;2023-04-06T01:21:07;94862.97;;;0.96;62.28
78835;BME280;68187;42.682;23.352;2023-04-06T01:23:42;94849.19;;;0.96;62.39
78835;BME280;68187;42.682;23.352;2023-04-06T01:26:09;94857.72;;;1.03;62.72
78835;BME280;68187;42.682;23.352;2023-04-06T01:28:36;94842.13;;;1.03;63.91
78835;BME280;68187;42.682;23.352;2023-04-06T01:31:04;94845.47;;;1.10;63.24
78835;BME280;68187;42.682;23.352;2023-04-06T01:33:30;94847.88;;;1.11;63.71
78835;BME280;68187;42.682;23.352;2023-04-06T01:35:57;94830.56;;;0.99;63.60
78835;BME280;68187;42.682;23.352;2023-04-06T01:38:24;94831.94;;;1.01;63.56
78835;BME280;68187;42.682;23.352;2023-04-06T01:40:53;94827.31;;;1.03;63.43
78835;BME280;68187;42.682;23.352;2023-04-06T01:43:20;94840.25;;;1.10;62.44
78835;BME280;68187;42.682;23.352;2023-04-06T01:45:46;94827.16;;;0.98;62.70
78835;BME280;68187;42.682;23.352;2023-04-06T01:48:13;94806.06;;;0.88;62.61
78835;BME280;68187;42.682;23.352;2023-04-06T01:50:40;94830.19;;;0.95;63.08
78835;BME280;68187;42.682;23.352;2023-04-06T01:53:07;94826.84;;;0.88;62.65
78835;BME280;68187;42.682;23.352;2023-04-06T01:55:33;94833.00;;;0.94;62.78
78835;BME280;68187;42.682;23.352;2023-04-06T01:58:01;94798.16;;;0.77;62.95
78835;BME280;68187;42.682;23.352;2023-04-06T02:00:28;94828.53;;;1.01;64.76
78835;BME280;68187;42.682;23.352;2023-04-06T02:02:55;94816.34;;;1.01;64.04
78835;BME280;68187;42.682;23.352;2023-04-06T02:05:22;94811.16;;;1.01;65.32
78835;BME280;68187;42.682;23.352;2023-04-06T02:07:49;94820.44;;;1.15;64.42
78835;BME280;68187;42.682;23.352;2023-04-06T02:10:16;94799.38;;;0.99;64.61
78835;BME280;68187;42.682;23.352;2023-04-06T02:12:43;94822.81;;;1.17;65.23
78835;BME280;68187;42.682;23.352;2023-04-06T02:15:11;94814.78;;;1.18;64.20
78835;BME280;68187;42.682;23.352;2023-04-06T02:17:39;94802.63;;;1.12;64.38
78835;BME280;68187;42.682;23.352;2023-04-06T02:20:06;94812.63;;;1.15;65.44
78835;BME280;68187;42.682;23.352;2023-04-06T02:22:33;94801.25;;;1.10;64.34
78835;BME280;68187;42.682;23.352;2023-04-06T02:25:00;94820.78;;;1.19;64.38
78835;BME280;68187;42.682;23.352;2023-04-06T02:27:27;94825.56;;;1.22;65.06
78835;BME280;68187;42.682;23.352;2023-04-06T02:29:54;94823.53;;;1.24;64.54
78835;BME280;68187;42.682;23.352;2023-04-06T02:32:22;94796.00;;;1.16;65.25
78835;BME280;68187;42.682;23.352;2023-04-06T02:34:49;94819.50;;;1.28;64.62
78835;BME280;68187;42.682;23.352;2023-04-06T02:37:16;94812.41;;;1.17;64.15
78835;BME280;68187;42.682;23.352;2023-04-06T02:39:42;94825.03;;;1.13;65.38
78835;BME280;68187;42.682;23.352;2023-04-06T02:42:09;94816.84;;;1.10;64.39
78835;BME280;68187;42.682;23.352;2023-04-06T02:44:36;94807.69;;;1.07;64.92
78835;BME280;68187;42.682;23.352;2023-04-06T02:47:03;94807.25;;;1.10;64.83
78835;BME280;68187;42.682;23.352;2023-04-06T02:49:31;94805.66;;;1.09;64.24
78835;BME280;68187;42.682;23.352;2023-04-06T02:51:58;94793.59;;;0.97;64.82
78835;BME280;68187;42.682;23.352;2023-04-06T02:54:24;94820.78;;;1.19;65.70
78835;BME280;68187;42.682;23.352;2023-04-06T02:56:51;94817.19;;;1.20;64.43
78835;BME280;68187;42.682;23.352;2023-04-06T02:59:18;94813.19;;;1.17;64.26
78835;BME280;68187;42.682;23.352;2023-04-06T03:01:45;94813.69;;;1.08;65.19
78835;BME280;68187;42.682;23.352;2023-04-06T03:04:11;94810.09;;;1.09;65.12
78835;BME280;68187;42.682;23.352;2023-04-06T03:06:39;94820.69;;;1.07;65.49
78835;BME280;68187;42.682;23.352;2023-04-06T03:09:06;94824.81;;;1.15;64.53
78835;BME280;68187;42.682;23.352;2023-04-06T03:11:33;94822.81;;;1.17;64.88
78835;BME280;68187;42.682;23.352;2023-04-06T03:14:00;94811.19;;;1.19;64.95
78835;BME280;68187;42.682;23.352;2023-04-06T03:16:27;94803.78;;;1.16;64.13
78835;BME280;68187;42.682;23.352;2023-04-06T03:18:53;94817.19;;;1.20;64.22
78835;BME280;68187;42.682;23.352;2023-04-06T03:21:21;94809.22;;;1.15;63.70
78835;BME280;68187;42.682;23.352;2023-04-06T03:23:49;94790.56;;;1.00;64.08
78835;BME280;68187;42.682;23.352;2023-04-06T03:26:16;94816.22;;;1.14;63.15
78835;BME280;68187;42.682;23.352;2023-04-06T03:28:43;94804.88;;;1.09;62.70
78835;BME280;68187;42.682;23.352;2023-04-06T03:31:10;94815.88;;;1.11;62.91
78835;BME280;68187;42.682;23.352;2023-04-06T03:33:37;94810.09;;;1.09;62.81
78835;BME280;68187;42.682;23.352;2023-04-06T03:36:04;94815.63;;;1.12;63.26
78835;BME280;68187;42.682;23.352;2023-04-06T03:38:31;94785.78;;;0.97;63.37
78835;BME280;68187;42.682;23.352;2023-04-06T03:40:59;94804.25;;;1.13;62.55
78835;BME280;68187;42.682;23.352;2023-04-06T03:43:26;94778.22;;;0.95;62.31
78835;BME280;68187;42.682;23.352;2023-04-06T03:45:53;94796.91;;;1.04;62.45
78835;BME280;68187;42.682;23.352;2023-04-06T03:48:19;94800.69;;;1.08;62.83
78835;BME280;68187;42.682;23.352;2023-04-06T03:50:46;94802.88;;;1.11;62.76
78835;BME280;68187;42.682;23.352;2023-04-06T03:53:13;94807.03;;;1.12;62.55
78835;BME280;68187;42.682;23.352;2023-04-06T03:55:40;94803.44;;;1.13;62.39
78835;BME280;68187;42.682;23.352;2023-04-06T03:58:08;94779.19;;;0.94;61.85
78835;BME280;68187;42.682;23.352;2023-04-06T04:00:35;94796.69;;;1.05;62.29
78835;BME280;68187;42.682;23.352;2023-04-06T04:03:02;94809.22;;;1.15;62.90
78835;BME280;68187;42.682;23.352;2023-04-06T04:05:29;94799.97;;;1.19;65.13
78835;BME280;68187;42.682;23.352;2023-04-06T04:07:55;94809.53;;;1.25;65.32
78835;BME280;68187;42.682;23.352;2023-04-06T04:10:22;94794.41;;;1.15;64.13
78835;BME280;68187;42.682;23.352;2023-04-06T04:12:49;94807.78;;;1.19;64.63
78835;BME280;68187;42.682;23.352;2023-04-06T04:15:17;94811.75;;;1.21;65.05
78835;BME280;68187;42.682;23.352;2023-04-06T04:17:44;94816.38;;;1.19;64.38
78835;BME280;68187;42.682;23.352;2023-04-06T04:20:12;94795.22;;;1.16;63.23
78835;BME280;68187;42.682;23.352;2023-04-06T04:22:40;94808.94;;;1.23;63.45
78835;BME280;68187;42.682;23.352;2023-04-06T04:25:07;94809.53;;;1.25;63.14
78835;BME280;68187;42.682;23.352;2023-04-06T04:27:34;94816.16;;;1.21;64.28
78835;BME280;68187;42.682;23.352;2023-04-06T04:30:01;94807.59;;;1.20;63.18
78835;BME280;68187;42.682;23.352;2023-04-06T04:32:29;94814.75;;;1.25;63.25
78835;BME280;68187;42.682;23.352;2023-04-06T04:34:56;94828.75;;;1.24;63.97
78835;BME280;68187;42.682;23.352;2023-04-06T04:37:22;94812.41;;;1.17;63.18
78835;BME280;68187;42.682;23.352;2023-04-06T04:39:49;94796.91;;;1.04;64.00
78835;BME280;68187;42.682;23.352;2023-04-06T04:42:16;94807.19;;;1.17;63.81
78835;BME280;68187;42.682;23.352;2023-04-06T04:44:42;94814.94;;;1.23;63.14
78835;BME280;68187;42.682;23.352;2023-04-06T04:47:09;94823.25;;;1.32;62.65
78835;BME280;68187;42.682;23.352;2023-04-06T04:49:37;94782.69;;;1.06;62.88
78835;BME280;68187;42.682;23.352;2023-04-06T04:52:04;94815.91;;;1.29;62.23
78835;BME280;68187;42.682;23.352;2023-04-06T04:54:31;94802.31;;;1.27;63.00
78835;BME280;68187;42.682;23.352;2023-04-06T04:56:58;94812.06;;;1.31;63.17
78835;BME280;68187;42.682;23.352;2023-04-06T04:59:24;94819.81;;;1.38;62.43
78835;BME280;68187;42.682;23.352;2023-04-06T05:01:51;94806.41;;;1.34;62.14
78835;BME280;68187;42.682;23.352;2023-04-06T05:04:18;94818.34;;;1.42;62.91
78835;BME280;68187;42.682;23.352;2023-04-06T05:06:47;94800.22;;;1.35;61.82
78835;BME280;68187;42.682;23.352;2023-04-06T05:09:14;94809.97;;;1.40;63.32
78835;BME280;68187;42.682;23.352;2023-04-06T05:11:40;94800.72;;;1.44;63.39
78835;BME280;68187;42.682;23.352;2023-04-06T05:14:07;94811.06;;;1.51;62.50
78835;BME280;68187;42.682;23.352;2023-04-06T05:16:34;94802.91;;;1.47;62.88
78835;BME280;68187;42.682;23.352;2023-04-06T05:19:01;94808.84;;;1.54;62.42
78835;BME280;68187;42.682;23.352;2023-04-06T05:21:28;94812.59;;;1.58;62.35
78835;BME280;68187;42.682;23.352;2023-04-06T05:23:56;94815.34;;;1.63;63.07
78835;BME280;68187;42.682;23.352;2023-04-06T05:26:23;94816.84;;;1.71;63.88
78835;BME280;68187;42.682;23.352;2023-04-06T05:28:50;94814.47;;;1.69;62.85
78835;BME280;68187;42.682;23.352;2023-04-06T05:31:17;94808.19;;;1.59;62.81
78835;BME280;68187;42.682;23.352;2023-04-06T05:33:44;94811.72;;;1.64;63.11
78835;BME280;68187;42.682;23.352;2023-04-06T05:36:11;94812.81;;;1.57;64.12
78835;BME280;68187;42.682;23.352;2023-04-06T05:38:38;94814.47;;;1.51;64.00
78835;BME280;68187;42.682;23.352;2023-04-06T05:41:06;94811.63;;;1.53;64.19
78835;BME280;68187;42.682;23.352;2023-04-06T05:43:33;94810.63;;;1.54;63.76
78835;BME280;68187;42.682;23.352;2023-04-06T05:46:00;94777.03;;;1.34;64.27
78835;BME280;68187;42.682;23.352;2023-04-06T05:48:26;94822.34;;;1.63;64.33
78835;BME280;68187;42.682;23.352;2023-04-06T05:50:54;94806.81;;;1.74;64.20
78835;BME280;68187;42.682;23.352;2023-04-06T05:53:21;94808.25;;;1.88;64.27
78835;BME280;68187;42.682;23.352;2023-04-06T05:55:47;94807.44;;;1.88;64.19
78835;BME280;68187;42.682;23.352;2023-04-06T05:58:16;94805.78;;;1.75;64.50
78835;BME280;68187;42.682;23.352;2023-04-06T06:00:43;94813.59;;;1.75;64.57
78835;BME280;68187;42.682;23.352;2023-04-06T06:03:12;94801.38;;;1.76;64.93
78835;BME280;68187;42.682;23.352;2023-04-06T06:05:39;94802.25;;;1.70;64.38
78835;BME280;68187;42.682;23.352;2023-04-06T06:08:06;94798.53;;;1.77;64.84
78835;BME280;68187;42.682;23.352;2023-04-06T06:10:33;94801.94;;;1.78;64.85
78835;BME280;68187;42.682;23.352;2023-04-06T06:12:59;94804.28;;;1.86;64.63
78835;BME280;68187;42.682;23.352;2023-04-06T06:15:28;94790.78;;;1.89;64.53
78835;BME280;68187;42.682;23.352;2023-04-06T06:17:54;94801.72;;;1.97;65.42
78835;BME280;68187;42.682;23.352;2023-04-06T06:20:21;94798.25;;;2.03;65.04
78835;BME280;68187;42.682;23.352;2023-04-06T06:22:48;94798.81;;;2.05;65.00
78835;BME280;68187;42.682;23.352;2023-04-06T06:25:15;94792.22;;;2.03;64.65
78835;BME280;68187;42.682;23.352;2023-04-06T06:27:42;94808.88;;;2.02;64.47
78835;BME280;68187;42.682;23.352;2023-04-06T06:30:09;94800.28;;;2.01;63.98
78835;BME280;68187;42.682;23.352;2023-04-06T06:32:37;94791.66;;;2.01;64.34
78835;BME280;68187;42.682;23.352;2023-04-06T06:35:04;94793.69;;;1.99;63.53
78835;BME280;68187;42.682;23.352;2023-04-06T06:37:31;94789.38;;;2.04;63.72
78835;BME280;68187;42.682;23.352;2023-04-06T06:39:58;94797.34;;;2.09;63.94
78835;BME280;68187;42.682;23.352;2023-04-06T06:42:25;94797.88;;;2.18;64.16
78835;BME280;68187;42.682;23.352;2023-04-06T06:44:52;94796.25;;;2.17;63.06
78835;BME280;68187;42.682;23.352;2023-04-06T06:47:18;94800.16;;;2.26;63.89
78835;BME280;68187;42.682;23.352;2023-04-06T06:49:47;94800.84;;;2.33;62.83
78835;BME280;68187;42.682;23.352;2023-04-06T06:52:13;94800.47;;;2.30;63.30
78835;BME280;68187;42.682;23.352;2023-04-06T06:54:40;94803.22;;;2.35;63.55
78835;BME280;68187;42.682;23.352;2023-04-06T06:57:07;94808.03;;;2.49;64.02
78835;BME280;68187;42.682;23.352;2023-04-06T06:59:33;94805.25;;;2.62;61.54
78835;BME280;68187;42.682;23.352;2023-04-06T07:02:00;94794.41;;;2.77;61.70
78835;BME280;68187;42.682;23.352;2023-04-06T07:04:27;94791.66;;;2.72;61.12
78835;BME280;68187;42.682;23.352;2023-04-06T07:06:55;94787.72;;;2.81;62.13
78835;BME280;68187;42.682;23.352;2023-04-06T07:09:22;94783.09;;;3.06;60.50
78835;BME280;68187;42.682;23.352;2023-04-06T07:11:48;94785.13;;;3.16;59.70
78835;BME280;68187;42.682;23.352;2023-04-06T07:14:15;94794.88;;;3.09;61.31
78835;BME280;68187;42.682;23.352;2023-04-06T07:16:42;94803.16;;;3.17;61.05
78835;BME280;68187;42.682;23.352;2023-04-06T07:19:10;94793.97;;;3.38;59.70
78835;BME280;68187;42.682;23.352;2023-04-06T07:21:37;94794.72;;;3.61;58.75
78835;BME280;68187;42.682;23.352;2023-04-06T07:24:05;94770.09;;;3.69;60.10
78835;BME280;68187;42.682;23.352;2023-04-06T07:26:32;94792.25;;;4.06;58.29
78835;BME280;68187;42.682;23.352;2023-04-06T07:28:59;94787.78;;;3.79;57.12
78835;BME280;68187;42.682;23.352;2023-04-06T07:31:26;94786.25;;;3.43;57.93
78835;BME280;68187;42.682;23.352;2023-04-06T07:33:52;94769.94;;;3.24;59.53
78835;BME280;68187;42.682;23.352;2023-04-06T07:36:20;94763.66;;;3.25;59.96
78835;BME280;68187;42.682;23.352;2023-04-06T07:38:46;94770.25;;;3.28;59.22
78835;BME280;68187;42.682;23.352;2023-04-06T07:41:15;94778.44;;;3.43;59.62
78835;BME280;68187;42.682;23.352;2023-04-06T07:43:42;94790.56;;;3.60;57.41
78835;BME280;68187;42.682;23.352;2023-04-06T07:46:09;94784.97;;;3.69;59.29
78835;BME280;68187;42.682;23.352;2023-04-06T07:48:36;94774.72;;;3.79;58.44
78835;BME280;68187;42.682;23.352;2023-04-06T07:51:03;94771.44;;;3.72;57.30
78835;BME280;68187;42.682;23.352;2023-04-06T07:53:31;94789.34;;;3.80;58.14
78835;BME280;68187;42.682;23.352;2023-04-06T07:55:58;94783.78;;;3.88;57.36
78835;BME280;68187;42.682;23.352;2023-04-06T07:58:27;94787.16;;;4.00;56.98
78835;BME280;68187;42.682;23.352;2023-04-06T08:00:53;94784.44;;;4.06;56.61
78835;BME280;68187;42.682;23.352;2023-04-06T08:03:21;94776.00;;;4.04;57.28
78835;BME280;68187;42.682;23.352;2023-04-06T08:05:50;94789.53;;;4.29;57.50
78835;BME280;68187;42.682;23.352;2023-04-06T08:08:17;94763.50;;;4.34;55.63
78835;BME280;68187;42.682;23.352;2023-04-06T08:10:44;94783.59;;;4.62;54.62
78835;BME280;68187;42.682;23.352;2023-04-06T08:13:11;94774.81;;;4.85;56.79
78835;BME280;68187;42.682;23.352;2023-04-06T08:15:39;94776.25;;;4.92;53.58
78835;BME280;68187;42.682;23.352;2023-04-06T08:18:06;94769.09;;;5.04;54.23
78835;BME280;68187;42.682;23.352;2023-04-06T08:20:33;94764.19;;;5.25;53.36
78835;BME280;68187;42.682;23.352;2023-04-06T08:23:00;94777.84;;;5.27;51.93
78835;BME280;68187;42.682;23.352;2023-04-06T08:25:27;94786.25;;;5.29;53.52
78835;BME280;68187;42.682;23.352;2023-04-06T08:27:54;94771.63;;;5.33;52.59
78835;BME280;68187;42.682;23.352;2023-04-06T08:30:21;94774.41;;;5.43;52.43
78835;BME280;68187;42.682;23.352;2023-04-06T08:32:49;94779.22;;;5.51;51.13
78835;BME280;68187;42.682;23.352;2023-04-06T08:35:16;94770.63;;;5.55;51.88
78835;BME280;68187;42.682;23.352;2023-04-06T08:37:43;94787.88;;;5.35;50.61
78835;BME280;68187;42.682;23.352;2023-04-06T08:40:11;94786.41;;;5.05;51.27
78835;BME280;68187;42.682;23.352;2023-04-06T08:42:44;94776.78;;;5.28;53.20
78835;BME280;68187;42.682;23.352;2023-04-06T08:45:13;94769.97;;;5.65;51.08
78835;BME280;68187;42.682;23.352;2023-04-06T08:47:41;94788.94;;;5.72;51.51
78835;BME280;68187;42.682;23.352;2023-04-06T08:50:10;94774.59;;;5.58;51.30
78835;BME280;68187;42.682;23.352;2023-04-06T08:52:38;94778.59;;;5.44;50.89
78835;BME280;68187;42.682;23.352;2023-04-06T08:55:05;94785.19;;;5.46;50.36
78835;BME280;68187;42.682;23.352;2023-04-06T08:57:33;94782.34;;;5.31;51.10
78835;BME280;68187;42.682;23.352;2023-04-06T09:00:02;94778.06;;;5.63;51.42
78835;BME280;68187;42.682;23.352;2023-04-06T09:02:30;94775.41;;;5.80;50.01
78835;BME280;68187;42.682;23.352;2023-04-06T09:04:57;94778.84;;;6.02;49.91
78835;BME280;68187;42.682;23.352;2023-04-06T09:07:26;94774.44;;;5.86;49.92
78835;BME280;68187;42.682;23.352;2023-04-06T09:09:54;94763.50;;;5.89;49.75
78835;BME280;68187;42.682;23.352;2023-04-06T09:12:25;94783.66;;;5.89;50.12
78835;BME280;68187;42.682;23.352;2023-04-06T09:14:53;94752.38;;;5.82;49.85
78835;BME280;68187;42.682;23.352;2023-04-06T09:17:21;94765.09;;;5.90;48.76
78835;BME280;68187;42.682;23.352;2023-04-06T09:19:49;94752.50;;;6.14;49.45
78835;BME280;68187;42.682;23.352;2023-04-06T09:22:15;94760.94;;;6.42;48.67
78835;BME280;68187;42.682;23.352;2023-04-06T09:24:46;94756.03;;;6.51;48.76
78835;BME280;68187;42.682;23.352;2023-04-06T09:27:14;94750.31;;;6.54;47.50
78835;BME280;68187;42.682;23.352;2023-04-06T09:29:42;94767.69;;;6.38;47.92
78835;BME280;68187;42.682;23.352;2023-04-06T09:32:09;94767.28;;;6.46;48.17
78835;BME280;68187;42.682;23.352;2023-04-06T09:34:38;94758.78;;;6.66;47.82
78835;BME280;68187;42.682;23.352;2023-04-06T09:37:14;94751.41;;;6.90;47.74
78835;BME280;68187;42.682;23.352;2023-04-06T09:39:41;94743.59;;;7.00;47.83
78835;BME280;68187;42.682;23.352;2023-04-06T09:42:11;94754.38;;;7.40;47.88
78835;BME280;68187;42.682;23.352;2023-04-06T09:44:38;94752.84;;;7.44;44.43
78835;BME280;68187;42.682;23.352;2023-04-06T09:47:06;94760.75;;;7.54;44.08
78835;BME280;68187;42.682;23.352;2023-04-06T09:49:33;94735.38;;;7.28;44.75
78835;BME280;68187;42.682;23.352;2023-04-06T09:52:02;94752.63;;;7.56;44.18
78835;BME280;68187;42.682;23.352;2023-04-06T09:54:30;94763.94;;;7.61;44.58
78835;BME280;68187;42.682;23.352;2023-04-06T09:57:03;94758.47;;;7.63;43.52
78835;BME280;68187;42.682;23.352;2023-04-06T09:59:39;94760.84;;;7.69;43.22
78835;BME280;68187;42.682;23.352;2023-04-06T10:02:15;94765.47;;;7.52;44.70
78835;BME280;68187;42.682;23.352;2023-04-06T10:04:50;94753.84;;;7.43;45.61
78835;BME280;68187;42.682;23.352;2023-04-06T10:07:20;94766.22;;;7.43;44.66
78835;BME280;68187;42.682;23.352;2023-04-06T10:09:47;94759.00;;;7.23;44.31
78835;BME280;68187;42.682;23.352;2023-04-06T10:12:15;94753.09;;;7.06;44.69
78835;BME280;68187;42.682;23.352;2023-04-06T10:14:44;94751.94;;;6.92;44.56
78835;BME280;68187;42.682;23.352;2023-04-06T10:17:11;94731.75;;;6.66;44.38
78835;BME280;68187;42.682;23.352;2023-04-06T10:19:43;94756.88;;;6.88;45.67
78835;BME280;68187;42.682;23.352;2023-04-06T10:22:15;94762.19;;;6.93;45.46
78835;BME280;68187;42.682;23.352;2023-04-06T10:24:45;94761.22;;;7.04;45.13
78835;BME280;68187;42.682;23.352;2023-04-06T10:27:11;94757.63;;;7.15;45.97
78835;BME280;68187;42.682;23.352;2023-04-06T10:29:44;94756.00;;;7.46;44.80
78835;BME280;68187;42.682;23.352;2023-04-06T10:32:11;94748.88;;;7.05;43.85
78835;BME280;68187;42.682;23.352;2023-04-06T10:34:38;94750.84;;;6.88;45.45
78835;BME280;68187;42.682;23.352;2023-04-06T10:37:13;94741.44;;;6.92;44.45
78835;BME280;68187;42.682;23.352;2023-04-06T10:39:46;94734.16;;;7.46;45.92
78835;BME280;68187;42.682;23.352;2023-04-06T10:42:13;94745.28;;;7.58;43.53
78835;BME280;68187;42.682;23.352;2023-04-06T10:44:43;94737.94;;;7.13;43.00
78835;BME280;68187;42.682;23.352;2023-04-06T10:47:16;94749.47;;;7.12;44.28
78835;BME280;68187;42.682;23.352;2023-04-06T10:49:44;94739.50;;;7.14;44.82
78835;BME280;68187;42.682;23.352;2023-04-06T10:52:11;94735.97;;;7.35;43.28
78835;BME280;68187;42.682;23.352;2023-04-06T10:54:41;94732.47;;;7.71;45.41
78835;BME280;68187;42.682;23.352;2023-04-06T10:57:09;94736.88;;;8.23;43.56
78835;BME280;68187;42.682;23.352;2023-04-06T10:59:35;94732.53;;;8.58;41.09
78835;BME280;68187;42.682;23.352;2023-04-06T11:02:04;94735.09;;;8.33;40.22
78835;BME280;68187;42.682;23.352;2023-04-06T11:04:31;94732.13;;;8.20;42.24
78835;BME280;68187;42.682;23.352;2023-04-06T11:06:58;94734.78;;;8.20;42.00
78835;BME280;68187;42.682;23.352;2023-04-06T11:09:25;94745.66;;;7.76;41.55
78835;BME280;68187;42.682;23.352;2023-04-06T11:11:53;94727.75;;;7.73;42.19
78835;BME280;68187;42.682;23.352;2023-04-06T11:14:20;94729.06;;;7.71;43.83
78835;BME280;68187;42.682;23.352;2023-04-06T11:16:48;94731.81;;;8.11;43.38
78835;BME280;68187;42.682;23.352;2023-04-06T11:19:16;94732.75;;;8.47;41.82
78835;BME280;68187;42.682;23.352;2023-04-06T11:21:44;94726.97;;;8.60;41.50
78835;BME280;68187;42.682;23.352;2023-04-06T11:24:14;94730.06;;;8.32;41.12
78835;BME280;68187;42.682;23.352;2023-04-06T11:26:42;94714.69;;;7.93;41.80
78835;BME280;68187;42.682;23.352;2023-04-06T11:29:10;94705.91;;;7.63;42.52
78835;BME280;68187;42.682;23.352;2023-04-06T11:31:39;94718.38;;;7.98;42.85
78835;BME280;68187;42.682;23.352;2023-04-06T11:34:10;94708.78;;;8.33;43.56
78835;BME280;68187;42.682;23.352;2023-04-06T11:36:41;94706.41;;;8.37;41.16
78835;BME280;68187;42.682;23.352;2023-04-06T11:39:08;94711.69;;;8.42;40.80
78835;BME280;68187;42.682;23.352;2023-04-06T11:41:38;94713.00;;;8.44;41.22
78835;BME280;68187;42.682;23.352;2023-04-06T11:44:06;94707.88;;;7.93;41.66
78835;BME280;68187;42.682;23.352;2023-04-06T11:46:33;94707.25;;;7.75;43.05
78835;BME280;68187;42.682;23.352;2023-04-06T11:49:00;94709.78;;;7.55;42.93
78835;BME280;68187;42.682;23.352;2023-04-06T11:51:27;94701.28;;;7.33;43.89
78835;BME280;68187;42.682;23.352;2023-04-06T11:53:56;94698.34;;;7.25;44.88
78835;BME280;68187;42.682;23.352;2023-04-06T11:56:24;94707.84;;;6.94;45.41
78835;BME280;68187;42.682;23.352;2023-04-06T11:58:51;94707.06;;;6.62;45.11
78835;BME280;68187;42.682;23.352;2023-04-06T12:01:18;94704.75;;;6.38;45.56
78835;BME280;68187;42.682;23.352;2023-04-06T12:03:45;94697.69;;;6.12;46.21
78835;BME280;68187;42.682;23.352;2023-04-06T12:06:12;94695.06;;;6.12;48.07
78835;BME280;68187;42.682;23.352;2023-04-06T12:08:39;94693.78;;;6.15;46.80
78835;BME280;68187;42.682;23.352;2023-04-06T12:11:07;94697.00;;;6.22;47.12
78835;BME280;68187;42.682;23.352;2023-04-06T12:13:34;94698.88;;;6.26;46.41
78835;BME280;68187;42.682;23.352;2023-04-06T12:16:00;94699.50;;;6.38;46.32
78835;BME280;68187;42.682;23.352;2023-04-06T12:18:27;94692.75;;;6.42;47.33
78835;BME280;68187;42.682;23.352;2023-04-06T12:20:54;94692.91;;;6.31;45.71
78835;BME280;68187;42.682;23.352;2023-04-06T12:23:21;94682.38;;;6.26;46.58
78835;BME280;68187;42.682;23.352;2023-04-06T12:25:48;94698.16;;;6.31;47.06
78835;BME280;68187;42.682;23.352;2023-04-06T12:28:16;94689.75;;;6.34;47.03
78835;BME280;68187;42.682;23.352;2023-04-06T12:30:45;94690.22;;;6.26;46.60
78835;BME280;68187;42.682;23.352;2023-04-06T12:33:12;94697.88;;;6.32;46.55
78835;BME280;68187;42.682;23.352;2023-04-06T12:35:39;94691.34;;;6.35;45.57
78835;BME280;68187;42.682;23.352;2023-04-06T12:38:06;94690.34;;;6.36;47.45
78835;BME280;68187;42.682;23.352;2023-04-06T12:40:36;94686.84;;;6.30;45.36
78835;BME280;68187;42.682;23.352;2023-04-06T12:43:03;94683.22;;;6.36;46.51
78835;BME280;68187;42.682;23.352;2023-04-06T12:45:31;94679.53;;;6.32;44.48
78835;BME280;68187;42.682;23.352;2023-04-06T12:47:58;94668.16;;;6.22;44.52
78835;BME280;68187;42.682;23.352;2023-04-06T12:50:25;94677.41;;;6.29;45.29
78835;BME280;68187;42.682;23.352;2023-04-06T12:52:52;94676.31;;;6.25;45.50
78835;BME280;68187;42.682;23.352;2023-04-06T12:55:20;94677.31;;;6.19;45.76
78835;BME280;68187;42.682;23.352;2023-04-06T12:57:47;94668.25;;;6.05;46.26
78835;BME280;68187;42.682;23.352;2023-04-06T13:00:14;94675.03;;;6.01;48.12